createdAt,value
2022-10-04T00:00:28.644Z,64.39
2022-10-04T00:03:05.386Z,64.29
2022-10-04T00:05:33.418Z,64.07
2022-10-04T00:08:29.559Z,64.33
2022-10-04T00:11:18.284Z,63.96
2022-10-04T00:13:55.486Z,64.08
2022-10-04T00:16:28.723Z,64.03
2022-10-04T00:19:19.606Z,64.20
2022-10-04T00:21:56.508Z,64.03
2022-10-04T00:24:28.698Z,63.68
2022-10-04T00:27:24.679Z,63.95
2022-10-04T00:30:23.789Z,63.95
2022-10-04T00:33:02.213Z,64.08
2022-10-04T00:35:29.126Z,63.84
2022-10-04T00:38:02.982Z,63.91
2022-10-04T00:40:33.214Z,64.17
2022-10-04T00:43:12.804Z,64.24
2022-10-04T00:46:18.968Z,64.05
2022-10-04T00:48:48.802Z,64.02
2022-10-04T00:51:24.783Z,63.90
2022-10-04T00:54:12.474Z,64.08
2022-10-04T00:57:01.935Z,63.98
2022-10-04T00:59:38.745Z,64.13
2022-10-04T01:02:11.058Z,63.98
2022-10-04T01:04:50.174Z,64.08
2022-10-04T01:07:27.328Z,64.03
2022-10-04T01:10:02.840Z,64.16
2022-10-04T01:12:32.865Z,64.19
2022-10-04T01:15:07.740Z,64.10
2022-10-04T01:17:35.147Z,63.90
2022-10-04T01:20:02.999Z,64.20
2022-10-04T01:22:44.179Z,63.84
2022-10-04T01:25:11.233Z,63.68
2022-10-04T01:27:43.932Z,63.84
2022-10-04T01:30:16.999Z,64.07
2022-10-04T01:32:45.494Z,63.80
2022-10-04T01:35:14.690Z,63.54
2022-10-04T01:37:41.902Z,63.77
2022-10-04T01:40:10.238Z,64.21
2022-10-04T01:42:55.218Z,64.06
2022-10-04T01:45:46.204Z,63.88
2022-10-04T01:48:17.436Z,63.82
2022-10-04T01:50:52.061Z,64.13
2022-10-04T01:53:20.931Z,64.09
2022-10-04T01:55:52.082Z,64.45
2022-10-04T01:58:23.746Z,64.19
2022-10-04T02:01:01.105Z,64.01
2022-10-04T02:03:43.658Z,64.51
2022-10-04T02:06:13.555Z,64.20
2022-10-04T02:08:47.239Z,64.47
2022-10-04T02:11:22.279Z,64.84
2022-10-04T02:13:53.665Z,64.65
2022-10-04T02:16:22.708Z,64.92
2022-10-04T02:18:51.709Z,64.67
2022-10-04T02:21:20.374Z,65.28
2022-10-04T02:23:48.011Z,65.58
2022-10-04T02:26:15.169Z,65.16
2022-10-04T02:28:42.448Z,65.62
2022-10-04T02:31:29.604Z,65.66
2022-10-04T02:33:59.456Z,65.61
2022-10-04T02:36:29.567Z,65.71
2022-10-04T02:39:39.097Z,65.76
2022-10-04T02:42:29.130Z,65.42
2022-10-04T02:45:10.123Z,65.60
2022-10-04T02:47:53.364Z,65.69
2022-10-04T02:50:29.826Z,65.88
2022-10-04T02:53:13.176Z,65.56
2022-10-04T02:55:43.700Z,65.82
2022-10-04T02:58:17.550Z,66.51
2022-10-04T03:00:52.132Z,66.18
2022-10-04T03:03:29.567Z,67.11
2022-10-04T03:06:02.739Z,67.48
2022-10-04T03:08:36.153Z,66.89
2022-10-04T03:11:05.303Z,66.93
2022-10-04T03:13:33.314Z,66.88
2022-10-04T03:16:01.103Z,67.17
2022-10-04T03:18:31.064Z,67.15
2022-10-04T03:21:01.729Z,67.46
2022-10-04T03:23:31.046Z,67.00
2022-10-04T03:26:04.638Z,67.13
2022-10-04T03:28:31.729Z,66.96
2022-10-04T03:30:59.025Z,67.18
2022-10-04T03:33:28.944Z,67.76
2022-10-04T03:35:58.661Z,67.14
2022-10-04T03:38:28.731Z,67.01
2022-10-04T03:40:59.328Z,67.24
2022-10-04T03:43:31.535Z,68.11
2022-10-04T03:46:00.908Z,67.89
2022-10-04T03:48:34.398Z,67.52
2022-10-04T03:51:04.397Z,67.87
2022-10-04T03:53:35.428Z,67.74
2022-10-04T03:56:09.238Z,67.73
2022-10-04T03:58:36.531Z,67.41
2022-10-04T04:01:22.096Z,67.71
2022-10-04T04:04:48.404Z,67.59
2022-10-04T04:07:25.236Z,68.23
2022-10-04T04:10:08.984Z,67.78
2022-10-04T04:12:40.737Z,67.73
2022-10-04T04:15:12.427Z,67.96
2022-10-04T04:17:47.510Z,67.39
2022-10-04T04:20:29.615Z,68.53
2022-10-04T04:23:14.783Z,68.13
2022-10-04T04:25:47.237Z,68.04
2022-10-04T04:28:34.683Z,67.66
2022-10-04T04:31:13.119Z,68.30
2022-10-04T04:33:44.503Z,68.69
2022-10-04T04:36:14.279Z,68.18
2022-10-04T04:39:01.307Z,68.56
2022-10-04T04:41:31.807Z,67.70
2022-10-04T04:43:58.914Z,67.71
2022-10-04T04:46:28.159Z,68.08
2022-10-04T04:49:02.657Z,68.78
2022-10-04T04:51:32.010Z,68.59
2022-10-04T04:54:02.195Z,68.45
2022-10-04T04:56:30.997Z,68.04
2022-10-04T04:59:02.542Z,68.23
2022-10-04T05:01:34.580Z,67.92
2022-10-04T05:04:07.053Z,67.99
2022-10-04T05:06:37.044Z,68.31
2022-10-04T05:09:05.580Z,67.94
2022-10-04T05:11:38.857Z,67.69
2022-10-04T05:14:09.745Z,68.25
2022-10-04T05:16:41.889Z,67.86
2022-10-04T05:19:24.225Z,68.32
2022-10-04T05:21:56.016Z,67.95
2022-10-04T05:24:37.581Z,67.61
2022-10-04T05:27:08.058Z,67.70
2022-10-04T05:29:39.647Z,67.14
2022-10-04T05:32:29.647Z,67.56
2022-10-04T05:34:57.774Z,67.92
2022-10-04T05:37:49.269Z,67.24
2022-10-04T05:40:23.726Z,67.24
2022-10-04T05:42:52.416Z,67.48
2022-10-04T05:45:28.127Z,67.17
2022-10-04T05:47:57.489Z,67.15
2022-10-04T05:50:33.464Z,66.90
2022-10-04T05:53:26.878Z,66.11
2022-10-04T05:56:05.871Z,66.04
2022-10-04T05:58:41.734Z,66.26
2022-10-04T06:01:23.603Z,66.08
2022-10-04T06:04:09.556Z,65.30
2022-10-04T06:07:21.663Z,66.09
2022-10-04T06:10:08.766Z,65.49
2022-10-04T06:13:08.030Z,65.80
2022-10-04T06:15:58.778Z,65.67
2022-10-04T06:19:02.674Z,65.60
2022-10-04T06:21:32.157Z,65.09
2022-10-04T06:24:10.502Z,64.99
2022-10-04T06:26:48.352Z,64.05
2022-10-04T06:29:20.740Z,64.95
2022-10-04T06:31:47.609Z,64.33
2022-10-04T06:34:29.900Z,64.53
2022-10-04T06:36:57.163Z,64.11
2022-10-04T06:39:49.374Z,63.33
2022-10-04T06:42:48.189Z,63.41
2022-10-04T06:45:33.755Z,63.87
2022-10-04T06:48:15.608Z,63.79
2022-10-04T06:50:42.472Z,63.53
2022-10-04T06:54:06.819Z,63.26
2022-10-04T06:56:41.797Z,63.29
2022-10-04T06:59:15.465Z,61.66
2022-10-04T07:01:52.535Z,61.54
2022-10-04T07:05:06.909Z,62.24
2022-10-04T07:07:35.778Z,62.04
2022-10-04T07:10:08.505Z,61.32
2022-10-04T07:12:41.757Z,61.24
2022-10-04T07:15:23.719Z,60.16
2022-10-04T07:17:53.733Z,60.60
2022-10-04T07:20:27.727Z,59.07
2022-10-04T07:23:05.981Z,60.08
2022-10-04T07:25:43.839Z,58.92
2022-10-04T07:28:32.714Z,58.58
2022-10-04T07:31:14.187Z,59.32
2022-10-04T07:33:51.860Z,59.27
2022-10-04T07:36:40.157Z,58.73
2022-10-04T07:39:30.943Z,58.54
2022-10-04T07:42:15.903Z,58.17
2022-10-04T07:44:48.782Z,57.71
2022-10-04T07:47:26.884Z,57.85
2022-10-04T07:49:55.235Z,57.91
2022-10-04T07:52:49.260Z,56.53
2022-10-04T07:55:25.283Z,57.35
2022-10-04T07:58:24.239Z,57.24
2022-10-04T08:01:07.607Z,57.38
2022-10-04T08:03:57.496Z,55.27
2022-10-04T08:06:40.234Z,55.73
2022-10-04T08:09:37.334Z,54.62
2022-10-04T08:12:07.276Z,52.23
2022-10-04T08:14:53.271Z,51.96
2022-10-04T08:17:47.642Z,50.82
2022-10-04T08:20:43.553Z,50.83
2022-10-04T08:23:10.591Z,51.20
2022-10-04T08:26:08.129Z,52.40
2022-10-04T08:29:22.467Z,53.29
2022-10-04T08:32:07.407Z,50.84
2022-10-04T08:35:02.832Z,52.12
2022-10-04T08:37:49.646Z,52.12
2022-10-04T08:40:47.558Z,52.69
2022-10-04T08:43:17.535Z,53.19
2022-10-04T08:46:20.003Z,50.80
2022-10-04T08:49:10.790Z,51.77
2022-10-04T08:52:11.269Z,52.83
2022-10-04T08:55:00.572Z,52.56
2022-10-04T08:57:48.956Z,52.59
2022-10-04T09:00:52.956Z,51.78
2022-10-04T09:03:59.041Z,52.85
2022-10-04T09:06:54.904Z,52.18
2022-10-04T09:10:15.872Z,52.03
2022-10-04T09:12:47.230Z,52.14
2022-10-04T09:15:51.678Z,51.88
2022-10-04T09:18:49.512Z,51.09
2022-10-04T09:21:39.566Z,51.92
2022-10-04T09:24:44.034Z,51.32
2022-10-04T09:27:55.213Z,51.30
2022-10-04T09:30:25.313Z,50.46
2022-10-04T09:33:04.359Z,50.95
2022-10-04T09:35:53.831Z,49.64
2022-10-04T09:38:35.763Z,50.16
2022-10-04T09:41:20.776Z,50.13
2022-10-04T09:44:16.893Z,49.60
2022-10-04T09:46:47.631Z,48.75
2022-10-04T09:49:39.341Z,48.93
2022-10-04T09:52:40.458Z,48.97
2022-10-04T09:55:49.687Z,49.32
2022-10-04T09:58:53.843Z,48.94
2022-10-04T10:01:42.856Z,49.28
2022-10-04T10:05:00.234Z,49.56
2022-10-04T10:07:29.810Z,49.03
2022-10-04T10:10:33.353Z,49.84
2022-10-04T10:13:40.561Z,49.44
2022-10-04T10:16:26.009Z,49.15
2022-10-04T10:19:01.835Z,49.62
2022-10-04T10:21:54.819Z,49.05
2022-10-04T10:24:58.406Z,49.26
2022-10-04T10:27:31.900Z,49.73
2022-10-04T10:30:15.768Z,49.60
2022-10-04T10:33:00.903Z,49.37
2022-10-04T10:35:52.383Z,49.07
2022-10-04T10:38:44.079Z,48.67
2022-10-04T10:41:41.564Z,48.76
2022-10-04T10:44:21.387Z,49.02
2022-10-04T10:47:22.427Z,48.24
2022-10-04T10:51:00.001Z,49.06
2022-10-04T10:53:48.331Z,49.45
2022-10-04T10:56:45.985Z,50.91
2022-10-04T10:59:36.330Z,53.73
2022-10-04T11:02:48.643Z,59.33
2022-10-04T11:05:29.673Z,58.15
2022-10-04T11:08:27.794Z,57.77
2022-10-04T11:11:15.980Z,61.02
2022-10-04T11:14:04.659Z,58.96
2022-10-04T11:17:05.498Z,59.32
2022-10-04T11:20:11.271Z,60.59
2022-10-04T11:23:00.686Z,60.45
2022-10-04T11:25:45.909Z,60.43
2022-10-04T11:28:22.081Z,61.93
2022-10-04T11:31:10.187Z,62.44
2022-10-04T11:34:16.524Z,61.13
2022-10-04T11:37:16.906Z,61.65
2022-10-04T11:39:50.542Z,61.87
2022-10-04T11:42:29.648Z,63.10
2022-10-04T11:45:48.587Z,65.65
2022-10-04T11:48:43.276Z,65.90
2022-10-04T11:51:51.723Z,65.79
2022-10-04T11:54:57.905Z,66.22
2022-10-04T11:57:40.649Z,65.11
2022-10-04T12:00:26.392Z,64.57
2022-10-04T12:03:29.464Z,65.70
2022-10-04T12:05:57.691Z,64.96
2022-10-04T12:08:48.417Z,64.87
2022-10-04T12:11:48.761Z,64.89
2022-10-04T12:14:33.067Z,65.52
2022-10-04T12:17:09.062Z,65.23
2022-10-04T12:19:42.905Z,64.86
2022-10-04T12:22:20.106Z,65.31
2022-10-04T12:24:58.025Z,65.42
2022-10-04T12:28:02.049Z,64.14
2022-10-04T12:30:58.115Z,63.93
2022-10-04T12:33:42.709Z,63.12
2022-10-04T12:36:28.888Z,62.42
2022-10-04T12:39:28.135Z,63.33
2022-10-04T12:42:09.834Z,62.96
2022-10-04T12:44:46.351Z,61.14
2022-10-04T12:47:56.531Z,62.16
2022-10-04T12:50:57.308Z,62.15
2022-10-04T12:53:49.053Z,62.24
2022-10-04T12:56:22.707Z,62.43
2022-10-04T12:59:01.941Z,62.14
2022-10-04T13:01:47.155Z,62.02
2022-10-04T13:04:20.465Z,61.85
2022-10-04T13:07:01.835Z,61.84
2022-10-04T13:10:22.576Z,61.77
2022-10-04T13:13:05.666Z,61.74
2022-10-04T13:19:00.375Z,61.80
2022-10-04T13:21:39.568Z,61.47
2022-10-04T13:24:21.571Z,61.46
2022-10-04T13:27:14.271Z,61.73
2022-10-04T13:29:52.305Z,61.45
2022-10-04T13:32:27.283Z,61.55
2022-10-04T13:34:54.496Z,61.58
2022-10-04T13:37:50.854Z,61.44
2022-10-04T13:40:29.980Z,61.25
2022-10-04T13:43:22.649Z,61.56
2022-10-04T13:46:02.776Z,61.95
2022-10-04T13:49:29.766Z,61.79
2022-10-04T13:52:30.134Z,61.87
2022-10-04T13:55:35.385Z,61.61
2022-10-04T13:58:16.439Z,61.63
2022-10-04T14:01:20.534Z,62.06
2022-10-04T14:04:22.016Z,62.46
2022-10-04T14:07:09.878Z,61.93
2022-10-04T14:09:53.071Z,62.11
2022-10-04T14:12:26.024Z,61.97
2022-10-04T14:15:24.406Z,61.63
2022-10-04T14:18:24.726Z,61.80
2022-10-04T14:20:59.991Z,61.88
2022-10-04T14:23:46.476Z,62.01
2022-10-04T14:26:28.725Z,61.65
2022-10-04T14:29:13.584Z,61.88
2022-10-04T14:32:20.518Z,61.63
2022-10-04T14:34:55.331Z,61.69
2022-10-04T14:37:43.934Z,61.79
2022-10-04T14:40:13.880Z,61.66
2022-10-04T14:43:02.311Z,61.90
2022-10-04T14:46:07.545Z,62.12
2022-10-04T14:48:47.266Z,62.23
2022-10-04T14:51:34.955Z,62.50
2022-10-04T14:54:01.859Z,61.97
2022-10-04T14:56:35.316Z,62.35
2022-10-04T14:59:26.344Z,62.36
2022-10-04T15:02:23.315Z,62.32
2022-10-04T15:05:28.779Z,62.72
2022-10-04T15:08:15.456Z,62.44
2022-10-04T15:10:55.258Z,62.53
2022-10-04T15:13:28.400Z,62.94
2022-10-04T15:16:10.066Z,62.53
2022-10-04T15:18:38.791Z,62.45
2022-10-04T15:21:32.202Z,62.64
2022-10-04T15:24:28.021Z,62.48
2022-10-04T15:26:58.310Z,62.69
2022-10-04T15:29:25.827Z,62.66
2022-10-04T15:32:24.671Z,62.29
2022-10-04T15:35:27.233Z,62.24
2022-10-04T15:38:14.529Z,61.99
2022-10-04T15:41:08.680Z,62.18
2022-10-04T15:43:44.869Z,62.05
2022-10-04T15:46:40.960Z,61.94
2022-10-04T15:49:28.427Z,62.13
2022-10-04T15:52:40.282Z,62.29
2022-10-04T15:55:41.104Z,62.12
2022-10-04T15:58:53.022Z,62.18
2022-10-04T16:01:35.184Z,61.76
2022-10-04T16:04:26.701Z,61.83
2022-10-04T16:07:01.020Z,61.66
2022-10-04T16:09:57.997Z,61.70
2022-10-04T16:12:56.966Z,61.89
2022-10-04T16:15:35.500Z,61.43
2022-10-04T16:18:38.699Z,61.19
2022-10-04T16:21:37.542Z,61.32
2022-10-04T16:24:20.168Z,61.27
2022-10-04T16:26:47.856Z,60.84
2022-10-04T16:30:02.373Z,61.06
2022-10-04T16:33:00.429Z,60.92
2022-10-04T16:35:31.579Z,60.86
2022-10-04T16:38:17.443Z,61.31
2022-10-04T16:40:59.926Z,60.95
2022-10-04T16:43:31.145Z,60.96
2022-10-04T16:46:07.264Z,61.15
2022-10-04T16:48:46.321Z,61.48
2022-10-04T16:51:22.163Z,61.11
2022-10-04T16:54:14.329Z,61.42
2022-10-04T16:57:01.286Z,61.16
2022-10-04T16:59:38.177Z,61.94
2022-10-04T17:02:28.495Z,61.78
2022-10-04T17:05:25.593Z,61.79
2022-10-04T17:08:18.981Z,61.81
2022-10-04T17:10:49.900Z,61.33
2022-10-04T17:13:36.049Z,62.43
2022-10-04T17:16:14.278Z,62.16
2022-10-04T17:18:55.605Z,61.68
2022-10-04T17:21:40.914Z,61.60
2022-10-04T17:24:16.226Z,61.18
2022-10-04T17:27:19.516Z,61.27
2022-10-04T17:30:02.971Z,60.59
2022-10-04T17:32:59.937Z,61.29
2022-10-04T17:35:59.394Z,61.22
2022-10-04T17:38:43.378Z,61.23
2022-10-04T17:41:22.675Z,60.77
2022-10-04T17:43:56.261Z,61.17
2022-10-04T17:46:50.129Z,61.37
2022-10-04T17:50:00.139Z,61.09
2022-10-04T17:52:53.084Z,61.04
2022-10-04T17:55:34.071Z,61.33
2022-10-04T17:58:15.987Z,60.77
2022-10-04T18:00:53.104Z,60.94
2022-10-04T18:03:26.231Z,60.28
2022-10-04T18:05:59.747Z,60.50
2022-10-04T18:08:55.305Z,60.30
2022-10-04T18:11:29.213Z,60.27
2022-10-04T18:14:02.830Z,60.02
2022-10-04T18:16:43.886Z,60.42
2022-10-04T18:19:37.009Z,59.85
2022-10-04T18:22:10.593Z,60.17
2022-10-04T18:24:38.098Z,60.68
2022-10-04T18:27:18.609Z,60.66
2022-10-04T18:30:13.978Z,60.97
2022-10-04T18:33:01.818Z,61.02
2022-10-04T18:35:31.497Z,61.19
2022-10-04T18:38:24.519Z,61.32
2022-10-04T18:41:02.505Z,61.46
2022-10-04T18:43:35.858Z,61.42
2022-10-04T18:46:17.648Z,61.38
2022-10-04T18:48:55.369Z,61.65
2022-10-04T18:51:23.264Z,62.14
2022-10-04T18:53:58.049Z,62.38
2022-10-04T18:56:28.428Z,62.29
2022-10-04T18:59:48.371Z,62.32
2022-10-04T19:02:34.908Z,62.48
2022-10-04T19:05:19.215Z,62.40
2022-10-04T19:07:58.433Z,61.97
2022-10-04T19:10:58.864Z,62.25
2022-10-04T19:13:55.360Z,61.92
2022-10-04T19:16:47.570Z,61.91
2022-10-04T19:19:29.210Z,62.34
2022-10-04T19:22:02.890Z,62.13
2022-10-04T19:24:52.661Z,62.25
2022-10-04T19:27:37.169Z,62.25
2022-10-04T19:30:04.356Z,62.42
2022-10-04T19:32:52.998Z,62.31
2022-10-04T19:35:26.444Z,62.45
2022-10-04T19:38:02.815Z,62.56
2022-10-04T19:40:45.271Z,62.75
2022-10-04T19:43:31.784Z,62.69
2022-10-04T19:46:17.295Z,62.97
2022-10-04T19:48:52.513Z,62.57
2022-10-04T19:51:36.473Z,62.96
2022-10-04T19:54:15.273Z,62.85
2022-10-04T19:56:49.662Z,62.83
2022-10-04T19:59:40.802Z,62.57
2022-10-04T20:02:12.756Z,63.06
2022-10-04T20:04:42.140Z,62.81
2022-10-04T20:07:20.956Z,63.06
2022-10-04T20:09:57.072Z,63.46
2022-10-04T20:13:04.207Z,63.04
2022-10-04T20:15:34.993Z,63.32
2022-10-04T20:18:03.424Z,63.51
2022-10-04T20:20:39.483Z,63.48
2022-10-04T20:23:08.166Z,63.05
2022-10-04T20:25:50.461Z,63.39
2022-10-04T20:28:26.416Z,63.71
2022-10-04T20:30:54.789Z,63.52
2022-10-04T20:33:33.746Z,62.91
2022-10-04T20:36:12.262Z,63.07
2022-10-04T20:39:01.147Z,62.50
2022-10-04T20:41:28.121Z,62.54
2022-10-04T20:44:04.089Z,62.79
2022-10-04T20:46:38.365Z,62.86
2022-10-04T20:49:16.006Z,62.44
2022-10-04T20:51:50.079Z,62.68
2022-10-04T20:54:22.591Z,62.85
2022-10-04T20:56:51.553Z,63.33
2022-10-04T20:59:18.803Z,62.97
2022-10-04T21:02:05.370Z,62.57
2022-10-04T21:04:35.049Z,62.72
2022-10-04T21:07:05.910Z,63.21
2022-10-04T21:09:35.284Z,63.10
2022-10-04T21:12:04.312Z,63.13
2022-10-04T21:14:36.381Z,63.20
2022-10-04T21:17:28.649Z,63.00
2022-10-04T21:19:55.617Z,63.04
2022-10-04T21:22:25.603Z,62.91
2022-10-04T21:24:57.021Z,63.87
2022-10-04T21:27:31.212Z,63.72
2022-10-04T21:29:59.334Z,64.24
2022-10-04T21:32:28.024Z,64.00
2022-10-04T21:34:55.166Z,64.21
2022-10-04T21:37:22.214Z,64.17
2022-10-04T21:39:49.415Z,64.24
2022-10-04T21:42:16.403Z,64.05
2022-10-04T21:44:43.509Z,63.99
2022-10-04T21:47:11.083Z,64.06
2022-10-04T21:49:38.096Z,64.44
2022-10-04T21:52:05.551Z,64.03
2022-10-04T21:54:33.567Z,63.74
2022-10-04T21:57:00.842Z,63.88
2022-10-04T21:59:28.115Z,63.74
2022-10-04T22:01:55.226Z,63.69
2022-10-04T22:04:22.381Z,63.81
2022-10-04T22:06:49.759Z,63.73
2022-10-04T22:09:16.977Z,63.49
2022-10-04T22:11:44.349Z,63.13
2022-10-04T22:14:11.473Z,63.75
2022-10-04T22:16:38.478Z,63.88
2022-10-04T22:19:05.443Z,63.59
2022-10-04T22:21:32.467Z,63.97
2022-10-04T22:23:59.917Z,63.44
2022-10-04T22:26:27.378Z,63.85
2022-10-04T22:28:56.158Z,63.63
2022-10-04T22:31:29.073Z,63.74
2022-10-04T22:33:56.895Z,63.75
2022-10-04T22:36:39.634Z,64.10
2022-10-04T22:39:09.330Z,63.52
2022-10-04T22:41:43.817Z,63.61
2022-10-04T22:44:25.294Z,63.68
2022-10-04T22:46:57.705Z,63.73
2022-10-04T22:49:31.431Z,63.69
2022-10-04T22:52:00.701Z,63.67
2022-10-04T22:54:32.284Z,63.94
2022-10-04T22:57:00.159Z,64.02
2022-10-04T22:59:39.337Z,63.82
2022-10-04T23:02:15.021Z,64.05
2022-10-04T23:04:52.438Z,63.99
2022-10-04T23:07:20.330Z,63.86
2022-10-04T23:09:47.582Z,63.51
2022-10-04T23:12:14.926Z,64.35
2022-10-04T23:14:42.293Z,63.68
2022-10-04T23:17:31.545Z,64.24
2022-10-04T23:20:10.189Z,64.17
2022-10-04T23:22:37.618Z,64.17
2022-10-04T23:25:23.588Z,64.36
2022-10-04T23:27:50.617Z,64.16
2022-10-04T23:30:22.783Z,64.31
2022-10-04T23:32:53.528Z,64.24
2022-10-04T23:35:25.496Z,64.28
2022-10-04T23:37:53.153Z,64.74
2022-10-04T23:40:23.377Z,63.94
2022-10-04T23:42:53.892Z,64.08
2022-10-04T23:45:27.056Z,64.06
2022-10-04T23:47:59.265Z,64.14
2022-10-04T23:50:37.694Z,64.14
2022-10-04T23:53:10.469Z,64.45
2022-10-04T23:55:43.025Z,64.53
2022-10-04T23:58:19.600Z,64.61
